sensor_id;sensor_type;location;lat;lon;timestamp;P1;durP1;ratioP1;P2;durP2;ratioP2
3343;SDS011;1685;53.104;8.228;2023-08-06T00:00:37;16.57;;;13.47;;
3343;SDS011;1685;53.104;8.228;2023-08-06T00:03:05;15.77;;;11.10;;
3343;SDS011;1685;53.104;8.228;2023-08-06T00:05:31;13.70;;;11.43;;
3343;SDS011;1685;53.104;8.228;2023-08-06T00:07:58;15.03;;;11.70;;
3343;SDS011;1685;53.104;8.228;2023-08-06T00:10:26;12.53;;;11.20;;
3343;SDS011;1685;53.104;8.228;2023-08-06T00:12:53;17.67;;;12.10;;
3343;SDS011;1685;53.104;8.228;2023-08-06T00:15:20;14.80;;;12.40;;
3343;SDS011;1685;53.104;8.228;2023-08-06T00:17:47;17.80;;;12.40;;
3343;SDS011;1685;53.104;8.228;2023-08-06T00:20:14;15.87;;;12.07;;
3343;SDS011;1685;53.104;8.228;2023-08-06T00:22:40;13.57;;;11.33;;
3343;SDS011;1685;53.104;8.228;2023-08-06T00:25:08;20.20;;;10.63;;
3343;SDS011;1685;53.104;8.228;2023-08-06T00:27:36;17.57;;;10.87;;
3343;SDS011;1685;53.104;8.228;2023-08-06T00:30:03;15.90;;;10.37;;
3343;SDS011;1685;53.104;8.228;2023-08-06T00:32:30;12.10;;;10.70;;
3343;SDS011;1685;53.104;8.228;2023-08-06T00:34:57;17.03;;;11.67;;
3343;SDS011;1685;53.104;8.228;2023-08-06T00:37:24;13.60;;;10.17;;
3343;SDS011;1685;53.104;8.228;2023-08-06T00:39:52;14.50;;;11.00;;
3343;SDS011;1685;53.104;8.228;2023-08-06T00:42:19;12.63;;;10.00;;
3343;SDS011;1685;53.104;8.228;2023-08-06T00:44:48;16.30;;;11.07;;
3343;SDS011;1685;53.104;8.228;2023-08-06T00:47:33;15.67;;;12.10;;
3343;SDS011;1685;53.104;8.228;2023-08-06T00:50:06;15.80;;;10.47;;
3343;SDS011;1685;53.104;8.228;2023-08-06T00:52:34;12.60;;;10.37;;
3343;SDS011;1685;53.104;8.228;2023-08-06T00:55:01;12.13;;;10.27;;
3343;SDS011;1685;53.104;8.228;2023-08-06T00:57:28;12.93;;;10.57;;
3343;SDS011;1685;53.104;8.228;2023-08-06T00:59:56;13.77;;;10.80;;
3343;SDS011;1685;53.104;8.228;2023-08-06T01:02:24;15.63;;;11.50;;
3343;SDS011;1685;53.104;8.228;2023-08-06T01:04:50;16.27;;;12.07;;
3343;SDS011;1685;53.104;8.228;2023-08-06T01:07:19;15.37;;;11.80;;
3343;SDS011;1685;53.104;8.228;2023-08-06T01:09:57;14.80;;;11.30;;
3343;SDS011;1685;53.104;8.228;2023-08-06T01:12:34;15.00;;;11.50;;
3343;SDS011;1685;53.104;8.228;2023-08-06T01:15:11;12.10;;;10.90;;
3343;SDS011;1685;53.104;8.228;2023-08-06T01:17:43;17.20;;;11.30;;
3343;SDS011;1685;53.104;8.228;2023-08-06T01:20:11;14.63;;;10.87;;
3343;SDS011;1685;53.104;8.228;2023-08-06T01:22:40;15.10;;;11.33;;
3343;SDS011;1685;53.104;8.228;2023-08-06T01:25:25;14.53;;;10.33;;
3343;SDS011;1685;53.104;8.228;2023-08-06T01:28:00;12.67;;;10.77;;
3343;SDS011;1685;53.104;8.228;2023-08-06T01:30:35;11.57;;;8.53;;
3343;SDS011;1685;53.104;8.228;2023-08-06T01:33:07;15.33;;;9.83;;
3343;SDS011;1685;53.104;8.228;2023-08-06T01:35:40;14.90;;;9.63;;
3343;SDS011;1685;53.104;8.228;2023-08-06T01:38:09;13.63;;;9.77;;
3343;SDS011;1685;53.104;8.228;2023-08-06T01:40:36;10.70;;;9.00;;
3343;SDS011;1685;53.104;8.228;2023-08-06T01:43:03;14.50;;;7.90;;
3343;SDS011;1685;53.104;8.228;2023-08-06T01:45:30;12.00;;;9.00;;
3343;SDS011;1685;53.104;8.228;2023-08-06T01:47:56;9.27;;;8.00;;
3343;SDS011;1685;53.104;8.228;2023-08-06T01:50:23;11.50;;;8.47;;
3343;SDS011;1685;53.104;8.228;2023-08-06T01:52:50;9.40;;;7.70;;
3343;SDS011;1685;53.104;8.228;2023-08-06T01:55:19;9.27;;;8.27;;
3343;SDS011;1685;53.104;8.228;2023-08-06T01:57:46;10.20;;;8.90;;
3343;SDS011;1685;53.104;8.228;2023-08-06T02:00:13;9.00;;;7.93;;
3343;SDS011;1685;53.104;8.228;2023-08-06T02:02:40;10.20;;;7.97;;
3343;SDS011;1685;53.104;8.228;2023-08-06T02:05:06;10.03;;;7.50;;
3343;SDS011;1685;53.104;8.228;2023-08-06T02:07:33;8.83;;;7.97;;
3343;SDS011;1685;53.104;8.228;2023-08-06T02:10:00;8.27;;;7.43;;
3343;SDS011;1685;53.104;8.228;2023-08-06T02:12:28;9.47;;;7.80;;
3343;SDS011;1685;53.104;8.228;2023-08-06T02:14:55;7.83;;;6.80;;
3343;SDS011;1685;53.104;8.228;2023-08-06T02:17:22;8.70;;;6.87;;
3343;SDS011;1685;53.104;8.228;2023-08-06T02:19:49;9.03;;;7.37;;
3343;SDS011;1685;53.104;8.228;2023-08-06T02:22:34;7.30;;;6.57;;
3343;SDS011;1685;53.104;8.228;2023-08-06T02:25:07;7.97;;;7.13;;
3343;SDS011;1685;53.104;8.228;2023-08-06T02:27:35;7.97;;;6.57;;
3343;SDS011;1685;53.104;8.228;2023-08-06T02:30:03;9.40;;;6.70;;
3343;SDS011;1685;53.104;8.228;2023-08-06T02:32:31;8.53;;;6.80;;
3343;SDS011;1685;53.104;8.228;2023-08-06T02:35:00;10.20;;;7.70;;
3343;SDS011;1685;53.104;8.228;2023-08-06T02:37:27;9.77;;;6.60;;
3343;SDS011;1685;53.104;8.228;2023-08-06T02:39:54;8.00;;;7.20;;
3343;SDS011;1685;53.104;8.228;2023-08-06T02:42:21;7.37;;;6.57;;
3343;SDS011;1685;53.104;8.228;2023-08-06T02:44:50;8.07;;;6.40;;
3343;SDS011;1685;53.104;8.228;2023-08-06T02:47:17;9.63;;;8.60;;
3343;SDS011;1685;53.104;8.228;2023-08-06T02:49:44;7.63;;;6.80;;
3343;SDS011;1685;53.104;8.228;2023-08-06T02:52:10;10.20;;;7.67;;
3343;SDS011;1685;53.104;8.228;2023-08-06T02:54:37;11.27;;;7.73;;
3343;SDS011;1685;53.104;8.228;2023-08-06T02:57:05;8.83;;;7.50;;
3343;SDS011;1685;53.104;8.228;2023-08-06T02:59:32;9.57;;;7.43;;
3343;SDS011;1685;53.104;8.228;2023-08-06T03:02:00;8.83;;;7.17;;
3343;SDS011;1685;53.104;8.228;2023-08-06T03:04:27;8.37;;;7.20;;
3343;SDS011;1685;53.104;8.228;2023-08-06T03:06:54;8.30;;;6.93;;
3343;SDS011;1685;53.104;8.228;2023-08-06T03:09:21;13.00;;;7.13;;
3343;SDS011;1685;53.104;8.228;2023-08-06T03:12:00;8.40;;;7.07;;
3343;SDS011;1685;53.104;8.228;2023-08-06T03:14:27;10.90;;;7.77;;
3343;SDS011;1685;53.104;8.228;2023-08-06T03:16:53;10.07;;;8.30;;
3343;SDS011;1685;53.104;8.228;2023-08-06T03:19:23;10.43;;;9.33;;
3343;SDS011;1685;53.104;8.228;2023-08-06T03:21:49;12.13;;;9.60;;
3343;SDS011;1685;53.104;8.228;2023-08-06T03:24:17;11.40;;;9.30;;
3343;SDS011;1685;53.104;8.228;2023-08-06T03:26:44;9.77;;;8.77;;
3343;SDS011;1685;53.104;8.228;2023-08-06T03:29:11;11.20;;;9.50;;
3343;SDS011;1685;53.104;8.228;2023-08-06T03:31:38;11.70;;;9.40;;
3343;SDS011;1685;53.104;8.228;2023-08-06T03:34:05;11.03;;;8.50;;
3343;SDS011;1685;53.104;8.228;2023-08-06T03:36:33;9.00;;;7.77;;
3343;SDS011;1685;53.104;8.228;2023-08-06T03:38:59;7.97;;;7.17;;
3343;SDS011;1685;53.104;8.228;2023-08-06T03:41:26;14.30;;;7.60;;
3343;SDS011;1685;53.104;8.228;2023-08-06T03:43:53;8.67;;;7.33;;
3343;SDS011;1685;53.104;8.228;2023-08-06T03:46:20;9.90;;;7.90;;
3343;SDS011;1685;53.104;8.228;2023-08-06T03:48:47;8.67;;;7.77;;
3343;SDS011;1685;53.104;8.228;2023-08-06T03:51:33;14.40;;;8.20;;
3343;SDS011;1685;53.104;8.228;2023-08-06T03:54:00;9.40;;;8.47;;
3343;SDS011;1685;53.104;8.228;2023-08-06T03:56:27;17.33;;;8.47;;
3343;SDS011;1685;53.104;8.228;2023-08-06T03:58:54;15.77;;;8.70;;
3343;SDS011;1685;53.104;8.228;2023-08-06T04:01:21;15.50;;;8.60;;
3343;SDS011;1685;53.104;8.228;2023-08-06T04:03:48;9.20;;;7.33;;
3343;SDS011;1685;53.104;8.228;2023-08-06T04:06:15;12.60;;;7.97;;
3343;SDS011;1685;53.104;8.228;2023-08-06T04:08:43;9.43;;;8.03;;
3343;SDS011;1685;53.104;8.228;2023-08-06T04:11:10;12.20;;;8.60;;
3343;SDS011;1685;53.104;8.228;2023-08-06T04:13:37;14.40;;;8.03;;
3343;SDS011;1685;53.104;8.228;2023-08-06T04:16:04;8.73;;;7.83;;
3343;SDS011;1685;53.104;8.228;2023-08-06T04:18:31;9.60;;;7.83;;
3343;SDS011;1685;53.104;8.228;2023-08-06T04:21:16;14.77;;;7.93;;
3343;SDS011;1685;53.104;8.228;2023-08-06T04:23:50;9.50;;;7.80;;
3343;SDS011;1685;53.104;8.228;2023-08-06T04:26:16;8.97;;;7.23;;
3343;SDS011;1685;53.104;8.228;2023-08-06T04:28:43;8.30;;;7.30;;
3343;SDS011;1685;53.104;8.228;2023-08-06T04:31:10;9.57;;;7.80;;
3343;SDS011;1685;53.104;8.228;2023-08-06T04:33:37;8.73;;;7.40;;
3343;SDS011;1685;53.104;8.228;2023-08-06T04:36:04;8.43;;;7.53;;
3343;SDS011;1685;53.104;8.228;2023-08-06T04:38:30;10.87;;;8.40;;
3343;SDS011;1685;53.104;8.228;2023-08-06T04:40:59;14.60;;;7.87;;
3343;SDS011;1685;53.104;8.228;2023-08-06T04:43:28;8.40;;;7.60;;
3343;SDS011;1685;53.104;8.228;2023-08-06T04:45:55;8.33;;;7.30;;
3343;SDS011;1685;53.104;8.228;2023-08-06T04:48:21;10.77;;;8.40;;
3343;SDS011;1685;53.104;8.228;2023-08-06T04:50:49;12.40;;;7.97;;
3343;SDS011;1685;53.104;8.228;2023-08-06T04:53:16;10.27;;;8.43;;
3343;SDS011;1685;53.104;8.228;2023-08-06T04:55:43;11.40;;;8.50;;
3343;SDS011;1685;53.104;8.228;2023-08-06T04:58:12;12.23;;;8.23;;
3343;SDS011;1685;53.104;8.228;2023-08-06T05:00:39;9.33;;;7.50;;
3343;SDS011;1685;53.104;8.228;2023-08-06T05:03:06;9.70;;;8.00;;
3343;SDS011;1685;53.104;8.228;2023-08-06T05:05:33;8.93;;;8.03;;
3343;SDS011;1685;53.104;8.228;2023-08-06T05:08:18;11.23;;;9.73;;
3343;SDS011;1685;53.104;8.228;2023-08-06T05:10:50;12.17;;;8.93;;
3343;SDS011;1685;53.104;8.228;2023-08-06T05:13:19;10.20;;;8.93;;
3343;SDS011;1685;53.104;8.228;2023-08-06T05:15:45;10.60;;;8.70;;
3343;SDS011;1685;53.104;8.228;2023-08-06T05:18:12;10.47;;;9.30;;
3343;SDS011;1685;53.104;8.228;2023-08-06T05:20:40;10.30;;;9.30;;
3343;SDS011;1685;53.104;8.228;2023-08-06T05:23:07;12.63;;;9.27;;
3343;SDS011;1685;53.104;8.228;2023-08-06T05:25:35;12.07;;;10.00;;
3343;SDS011;1685;53.104;8.228;2023-08-06T05:28:02;11.80;;;9.87;;
3343;SDS011;1685;53.104;8.228;2023-08-06T05:30:30;13.60;;;8.80;;
3343;SDS011;1685;53.104;8.228;2023-08-06T05:32:57;11.87;;;10.20;;
3343;SDS011;1685;53.104;8.228;2023-08-06T05:35:23;11.50;;;9.50;;
3343;SDS011;1685;53.104;8.228;2023-08-06T05:37:51;12.17;;;9.37;;
3343;SDS011;1685;53.104;8.228;2023-08-06T05:40:18;12.47;;;9.80;;
3343;SDS011;1685;53.104;8.228;2023-08-06T05:42:45;14.23;;;11.10;;
3343;SDS011;1685;53.104;8.228;2023-08-06T05:45:12;11.90;;;9.83;;
3343;SDS011;1685;53.104;8.228;2023-08-06T05:47:40;12.70;;;11.07;;
3343;SDS011;1685;53.104;8.228;2023-08-06T05:50:07;11.30;;;10.10;;
3343;SDS011;1685;53.104;8.228;2023-08-06T05:52:35;11.33;;;10.20;;
3343;SDS011;1685;53.104;8.228;2023-08-06T05:55:20;11.37;;;9.80;;
3343;SDS011;1685;53.104;8.228;2023-08-06T05:57:46;10.57;;;9.47;;
3343;SDS011;1685;53.104;8.228;2023-08-06T06:00:14;10.90;;;9.20;;
3343;SDS011;1685;53.104;8.228;2023-08-06T06:02:42;9.90;;;8.90;;
3343;SDS011;1685;53.104;8.228;2023-08-06T06:05:09;14.20;;;10.53;;
3343;SDS011;1685;53.104;8.228;2023-08-06T06:07:36;12.83;;;10.17;;
3343;SDS011;1685;53.104;8.228;2023-08-06T06:10:03;14.03;;;11.60;;
3343;SDS011;1685;53.104;8.228;2023-08-06T06:12:48;10.60;;;9.50;;
3343;SDS011;1685;53.104;8.228;2023-08-06T06:15:21;9.57;;;8.67;;
3343;SDS011;1685;53.104;8.228;2023-08-06T06:17:49;10.70;;;9.43;;
3343;SDS011;1685;53.104;8.228;2023-08-06T06:20:16;10.57;;;9.47;;
3343;SDS011;1685;53.104;8.228;2023-08-06T06:22:43;11.93;;;9.60;;
3343;SDS011;1685;53.104;8.228;2023-08-06T06:25:10;10.70;;;9.60;;
3343;SDS011;1685;53.104;8.228;2023-08-06T06:27:37;12.30;;;9.40;;
3343;SDS011;1685;53.104;8.228;2023-08-06T06:30:05;10.37;;;9.20;;
3343;SDS011;1685;53.104;8.228;2023-08-06T06:32:33;9.13;;;8.23;;
3343;SDS011;1685;53.104;8.228;2023-08-06T06:35:19;11.23;;;9.50;;
3343;SDS011;1685;53.104;8.228;2023-08-06T06:37:51;12.37;;;9.73;;
3343;SDS011;1685;53.104;8.228;2023-08-06T06:40:19;13.20;;;9.30;;
3343;SDS011;1685;53.104;8.228;2023-08-06T06:42:46;10.53;;;9.03;;
3343;SDS011;1685;53.104;8.228;2023-08-06T06:45:13;8.70;;;7.87;;
3343;SDS011;1685;53.104;8.228;2023-08-06T06:47:58;10.43;;;8.90;;
3343;SDS011;1685;53.104;8.228;2023-08-06T06:50:31;9.03;;;8.03;;
3343;SDS011;1685;53.104;8.228;2023-08-06T06:52:58;13.87;;;9.17;;
3343;SDS011;1685;53.104;8.228;2023-08-06T06:55:31;9.40;;;8.50;;
3343;SDS011;1685;53.104;8.228;2023-08-06T06:57:58;15.80;;;8.50;;
3343;SDS011;1685;53.104;8.228;2023-08-06T07:00:25;7.97;;;7.17;;
3343;SDS011;1685;53.104;8.228;2023-08-06T07:02:52;8.10;;;7.10;;
3343;SDS011;1685;53.104;8.228;2023-08-06T07:05:19;7.53;;;6.83;;
3343;SDS011;1685;53.104;8.228;2023-08-06T07:07:48;8.33;;;7.53;;
3343;SDS011;1685;53.104;8.228;2023-08-06T07:10:15;7.50;;;6.53;;
3343;SDS011;1685;53.104;8.228;2023-08-06T07:12:42;8.30;;;7.40;;
3343;SDS011;1685;53.104;8.228;2023-08-06T07:15:09;17.03;;;7.10;;
3343;SDS011;1685;53.104;8.228;2023-08-06T07:17:36;7.77;;;7.07;;
3343;SDS011;1685;53.104;8.228;2023-08-06T07:20:04;7.57;;;6.87;;
3343;SDS011;1685;53.104;8.228;2023-08-06T07:22:32;6.67;;;6.00;;
3343;SDS011;1685;53.104;8.228;2023-08-06T07:25:01;14.20;;;7.47;;
3343;SDS011;1685;53.104;8.228;2023-08-06T07:27:28;6.20;;;5.70;;
3343;SDS011;1685;53.104;8.228;2023-08-06T07:29:55;6.67;;;6.17;;
3343;SDS011;1685;53.104;8.228;2023-08-06T07:32:23;6.33;;;5.80;;
3343;SDS011;1685;53.104;8.228;2023-08-06T07:34:50;7.30;;;6.60;;
3343;SDS011;1685;53.104;8.228;2023-08-06T07:37:21;11.03;;;6.30;;
3343;SDS011;1685;53.104;8.228;2023-08-06T07:39:48;6.53;;;5.93;;
3343;SDS011;1685;53.104;8.228;2023-08-06T07:42:17;7.47;;;6.63;;
3343;SDS011;1685;53.104;8.228;2023-08-06T07:44:49;6.50;;;6.00;;
3343;SDS011;1685;53.104;8.228;2023-08-06T07:47:17;8.40;;;6.23;;
3343;SDS011;1685;53.104;8.228;2023-08-06T07:49:45;10.30;;;7.60;;
3343;SDS011;1685;53.104;8.228;2023-08-06T07:52:11;7.03;;;6.43;;
3343;SDS011;1685;53.104;8.228;2023-08-06T07:54:38;8.13;;;5.10;;
3343;SDS011;1685;53.104;8.228;2023-08-06T07:57:06;5.53;;;5.03;;
3343;SDS011;1685;53.104;8.228;2023-08-06T07:59:34;6.33;;;5.83;;
3343;SDS011;1685;53.104;8.228;2023-08-06T08:02:01;6.63;;;6.03;;
3343;SDS011;1685;53.104;8.228;2023-08-06T08:04:29;7.00;;;5.83;;
3343;SDS011;1685;53.104;8.228;2023-08-06T08:06:56;5.83;;;5.43;;
3343;SDS011;1685;53.104;8.228;2023-08-06T08:09:23;8.03;;;6.07;;
3343;SDS011;1685;53.104;8.228;2023-08-06T08:11:50;5.50;;;5.10;;
3343;SDS011;1685;53.104;8.228;2023-08-06T08:14:17;5.70;;;5.20;;
3343;SDS011;1685;53.104;8.228;2023-08-06T08:16:46;10.43;;;5.90;;
3343;SDS011;1685;53.104;8.228;2023-08-06T08:19:12;7.00;;;4.90;;
3343;SDS011;1685;53.104;8.228;2023-08-06T08:21:39;6.93;;;5.30;;
3343;SDS011;1685;53.104;8.228;2023-08-06T08:24:07;5.27;;;4.77;;
3343;SDS011;1685;53.104;8.228;2023-08-06T08:26:34;5.17;;;4.77;;
3343;SDS011;1685;53.104;8.228;2023-08-06T08:29:01;5.53;;;5.03;;
3343;SDS011;1685;53.104;8.228;2023-08-06T08:31:28;6.17;;;5.03;;
3343;SDS011;1685;53.104;8.228;2023-08-06T08:33:56;5.30;;;4.90;;
3343;SDS011;1685;53.104;8.228;2023-08-06T08:36:25;6.30;;;4.90;;
3343;SDS011;1685;53.104;8.228;2023-08-06T08:38:53;6.90;;;5.73;;
3343;SDS011;1685;53.104;8.228;2023-08-06T08:41:20;6.80;;;6.10;;
3343;SDS011;1685;53.104;8.228;2023-08-06T08:43:47;10.53;;;8.10;;
3343;SDS011;1685;53.104;8.228;2023-08-06T08:46:17;8.47;;;7.60;;
3343;SDS011;1685;53.104;8.228;2023-08-06T08:48:44;8.87;;;8.07;;
3343;SDS011;1685;53.104;8.228;2023-08-06T08:51:13;11.10;;;9.60;;
3343;SDS011;1685;53.104;8.228;2023-08-06T08:53:40;11.80;;;9.90;;
3343;SDS011;1685;53.104;8.228;2023-08-06T08:56:10;10.80;;;8.97;;
3343;SDS011;1685;53.104;8.228;2023-08-06T08:58:38;9.30;;;8.43;;
3343;SDS011;1685;53.104;8.228;2023-08-06T09:01:05;12.80;;;9.87;;
3343;SDS011;1685;53.104;8.228;2023-08-06T09:03:34;10.60;;;9.60;;
3343;SDS011;1685;53.104;8.228;2023-08-06T09:06:02;10.70;;;9.60;;
3343;SDS011;1685;53.104;8.228;2023-08-06T09:08:32;11.33;;;9.80;;
3343;SDS011;1685;53.104;8.228;2023-08-06T09:11:02;10.00;;;9.00;;
3343;SDS011;1685;53.104;8.228;2023-08-06T09:13:29;14.77;;;10.07;;
3343;SDS011;1685;53.104;8.228;2023-08-06T09:15:56;9.70;;;8.70;;
3343;SDS011;1685;53.104;8.228;2023-08-06T09:18:26;11.47;;;9.83;;
3343;SDS011;1685;53.104;8.228;2023-08-06T09:20:55;11.73;;;10.50;;
3343;SDS011;1685;53.104;8.228;2023-08-06T09:23:25;12.30;;;11.00;;
3343;SDS011;1685;53.104;8.228;2023-08-06T09:25:55;15.50;;;10.07;;
3343;SDS011;1685;53.104;8.228;2023-08-06T09:28:22;12.53;;;10.40;;
3343;SDS011;1685;53.104;8.228;2023-08-06T09:30:50;11.00;;;9.87;;
3343;SDS011;1685;53.104;8.228;2023-08-06T09:33:17;15.57;;;10.93;;
3343;SDS011;1685;53.104;8.228;2023-08-06T09:35:45;10.10;;;9.20;;
3343;SDS011;1685;53.104;8.228;2023-08-06T09:38:13;12.67;;;11.33;;
3343;SDS011;1685;53.104;8.228;2023-08-06T09:40:40;12.10;;;10.37;;
3343;SDS011;1685;53.104;8.228;2023-08-06T09:43:08;9.10;;;8.30;;
3343;SDS011;1685;53.104;8.228;2023-08-06T09:45:37;11.03;;;9.00;;
3343;SDS011;1685;53.104;8.228;2023-08-06T09:48:05;8.60;;;7.80;;
3343;SDS011;1685;53.104;8.228;2023-08-06T09:50:33;7.97;;;7.20;;
3343;SDS011;1685;53.104;8.228;2023-08-06T09:53:01;8.20;;;7.43;;
3343;SDS011;1685;53.104;8.228;2023-08-06T09:55:29;7.13;;;6.53;;
3343;SDS011;1685;53.104;8.228;2023-08-06T09:57:56;8.10;;;7.50;;
3343;SDS011;1685;53.104;8.228;2023-08-06T10:00:25;9.83;;;8.93;;
3343;SDS011;1685;53.104;8.228;2023-08-06T10:02:53;8.23;;;7.63;;
3343;SDS011;1685;53.104;8.228;2023-08-06T10:05:21;7.13;;;6.63;;
3343;SDS011;1685;53.104;8.228;2023-08-06T10:07:48;6.33;;;5.83;;
3343;SDS011;1685;53.104;8.228;2023-08-06T10:10:16;5.47;;;5.07;;
3343;SDS011;1685;53.104;8.228;2023-08-06T10:12:44;5.50;;;5.10;;
3343;SDS011;1685;53.104;8.228;2023-08-06T10:15:15;6.70;;;6.10;;
3343;SDS011;1685;53.104;8.228;2023-08-06T10:17:45;5.53;;;5.13;;
3343;SDS011;1685;53.104;8.228;2023-08-06T10:20:13;5.50;;;5.00;;
3343;SDS011;1685;53.104;8.228;2023-08-06T10:22:42;7.00;;;6.40;;
3343;SDS011;1685;53.104;8.228;2023-08-06T10:25:09;6.70;;;6.27;;
3343;SDS011;1685;53.104;8.228;2023-08-06T10:27:39;6.30;;;5.80;;
3343;SDS011;1685;53.104;8.228;2023-08-06T10:30:20;8.27;;;7.67;;
3343;SDS011;1685;53.104;8.228;2023-08-06T10:32:50;6.70;;;6.20;;
3343;SDS011;1685;53.104;8.228;2023-08-06T10:35:27;8.73;;;8.03;;
3343;SDS011;1685;53.104;8.228;2023-08-06T10:37:57;6.60;;;6.10;;
3343;SDS011;1685;53.104;8.228;2023-08-06T10:40:25;6.80;;;6.30;;
3343;SDS011;1685;53.104;8.228;2023-08-06T10:42:54;7.90;;;7.20;;
3343;SDS011;1685;53.104;8.228;2023-08-06T10:45:21;8.20;;;7.60;;
3343;SDS011;1685;53.104;8.228;2023-08-06T10:47:54;8.43;;;7.73;;
3343;SDS011;1685;53.104;8.228;2023-08-06T10:50:22;7.40;;;6.80;;
3343;SDS011;1685;53.104;8.228;2023-08-06T10:52:49;6.60;;;6.10;;
3343;SDS011;1685;53.104;8.228;2023-08-06T10:55:23;5.27;;;4.87;;
3343;SDS011;1685;53.104;8.228;2023-08-06T10:57:50;6.60;;;6.07;;
3343;SDS011;1685;53.104;8.228;2023-08-06T11:00:17;6.13;;;5.53;;
3343;SDS011;1685;53.104;8.228;2023-08-06T11:02:46;5.93;;;5.50;;
3343;SDS011;1685;53.104;8.228;2023-08-06T11:05:15;4.73;;;4.43;;
3343;SDS011;1685;53.104;8.228;2023-08-06T11:07:42;4.03;;;3.73;;
3343;SDS011;1685;53.104;8.228;2023-08-06T11:10:10;3.40;;;3.20;;
3343;SDS011;1685;53.104;8.228;2023-08-06T11:12:38;2.93;;;2.73;;
3343;SDS011;1685;53.104;8.228;2023-08-06T11:15:06;2.50;;;2.40;;
3343;SDS011;1685;53.104;8.228;2023-08-06T11:17:33;2.87;;;2.70;;
3343;SDS011;1685;53.104;8.228;2023-08-06T11:20:01;2.27;;;2.17;;
3343;SDS011;1685;53.104;8.228;2023-08-06T11:22:29;2.30;;;2.20;;
3343;SDS011;1685;53.104;8.228;2023-08-06T11:24:56;1.50;;;1.50;;
3343;SDS011;1685;53.104;8.228;2023-08-06T11:27:26;2.13;;;2.03;;
3343;SDS011;1685;53.104;8.228;2023-08-06T11:29:54;1.80;;;1.67;;
3343;SDS011;1685;53.104;8.228;2023-08-06T11:32:21;1.87;;;1.77;;
3343;SDS011;1685;53.104;8.228;2023-08-06T11:34:48;1.53;;;1.53;;
3343;SDS011;1685;53.104;8.228;2023-08-06T11:37:15;2.30;;;2.00;;
3343;SDS011;1685;53.104;8.228;2023-08-06T11:39:46;3.50;;;1.83;;
3343;SDS011;1685;53.104;8.228;2023-08-06T11:42:14;2.03;;;1.90;;
3343;SDS011;1685;53.104;8.228;2023-08-06T11:44:41;2.17;;;1.97;;
3343;SDS011;1685;53.104;8.228;2023-08-06T11:47:12;3.03;;;2.10;;
3343;SDS011;1685;53.104;8.228;2023-08-06T11:49:40;2.03;;;1.93;;
3343;SDS011;1685;53.104;8.228;2023-08-06T11:52:16;2.57;;;2.37;;
3343;SDS011;1685;53.104;8.228;2023-08-06T11:54:46;2.67;;;2.40;;
3343;SDS011;1685;53.104;8.228;2023-08-06T11:57:14;3.30;;;2.10;;
3343;SDS011;1685;53.104;8.228;2023-08-06T11:59:41;2.93;;;2.70;;
3343;SDS011;1685;53.104;8.228;2023-08-06T12:02:09;5.93;;;2.27;;
3343;SDS011;1685;53.104;8.228;2023-08-06T12:07:29;3.20;;;3.00;;
3343;SDS011;1685;53.104;8.228;2023-08-06T12:09:58;3.63;;;3.33;;
3343;SDS011;1685;53.104;8.228;2023-08-06T12:12:25;2.90;;;2.70;;
3343;SDS011;1685;53.104;8.228;2023-08-06T12:14:52;2.90;;;2.63;;
3343;SDS011;1685;53.104;8.228;2023-08-06T12:17:19;3.53;;;2.37;;
3343;SDS011;1685;53.104;8.228;2023-08-06T12:19:47;3.10;;;2.87;;
3343;SDS011;1685;53.104;8.228;2023-08-06T12:22:14;3.40;;;3.10;;
3343;SDS011;1685;53.104;8.228;2023-08-06T12:24:41;3.50;;;3.20;;
3343;SDS011;1685;53.104;8.228;2023-08-06T12:27:09;2.60;;;2.40;;
3343;SDS011;1685;53.104;8.228;2023-08-06T12:29:37;2.50;;;2.40;;
3343;SDS011;1685;53.104;8.228;2023-08-06T12:32:04;2.23;;;2.13;;
3343;SDS011;1685;53.104;8.228;2023-08-06T12:34:31;2.63;;;2.43;;
3343;SDS011;1685;53.104;8.228;2023-08-06T12:36:58;2.43;;;2.23;;
3343;SDS011;1685;53.104;8.228;2023-08-06T12:39:26;2.97;;;2.67;;
3343;SDS011;1685;53.104;8.228;2023-08-06T12:41:53;2.10;;;2.00;;
3343;SDS011;1685;53.104;8.228;2023-08-06T12:44:23;2.83;;;2.33;;
3343;SDS011;1685;53.104;8.228;2023-08-06T12:46:50;2.70;;;2.50;;
3343;SDS011;1685;53.104;8.228;2023-08-06T12:49:17;3.77;;;2.77;;
3343;SDS011;1685;53.104;8.228;2023-08-06T12:51:46;8.20;;;2.93;;
3343;SDS011;1685;53.104;8.228;2023-08-06T12:54:13;2.10;;;2.00;;
3343;SDS011;1685;53.104;8.228;2023-08-06T12:56:40;2.17;;;2.07;;
3343;SDS011;1685;53.104;8.228;2023-08-06T12:59:07;2.50;;;2.30;;
3343;SDS011;1685;53.104;8.228;2023-08-06T13:01:36;2.60;;;2.50;;
3343;SDS011;1685;53.104;8.228;2023-08-06T13:04:03;2.67;;;2.47;;
3343;SDS011;1685;53.104;8.228;2023-08-06T13:06:30;5.83;;;2.20;;
3343;SDS011;1685;53.104;8.228;2023-08-06T13:09:00;2.20;;;2.10;;
3343;SDS011;1685;53.104;8.228;2023-08-06T13:11:28;2.10;;;2.00;;
3343;SDS011;1685;53.104;8.228;2023-08-06T13:13:55;2.80;;;2.60;;
3343;SDS011;1685;53.104;8.228;2023-08-06T13:16:22;3.57;;;2.53;;
3343;SDS011;1685;53.104;8.228;2023-08-06T13:18:50;2.30;;;2.10;;
3343;SDS011;1685;53.104;8.228;2023-08-06T13:21:17;3.93;;;2.50;;
3343;SDS011;1685;53.104;8.228;2023-08-06T13:23:44;2.90;;;2.60;;
3343;SDS011;1685;53.104;8.228;2023-08-06T13:26:12;2.80;;;2.60;;
3343;SDS011;1685;53.104;8.228;2023-08-06T13:28:40;3.10;;;2.80;;
3343;SDS011;1685;53.104;8.228;2023-08-06T13:31:07;4.27;;;2.10;;
3343;SDS011;1685;53.104;8.228;2023-08-06T13:33:34;2.30;;;2.10;;
3343;SDS011;1685;53.104;8.228;2023-08-06T13:36:03;4.67;;;2.23;;
3343;SDS011;1685;53.104;8.228;2023-08-06T13:38:30;2.40;;;2.30;;
3343;SDS011;1685;53.104;8.228;2023-08-06T13:40:57;7.27;;;3.53;;
3343;SDS011;1685;53.104;8.228;2023-08-06T13:43:24;2.63;;;2.43;;
3343;SDS011;1685;53.104;8.228;2023-08-06T13:45:51;2.93;;;2.70;;
3343;SDS011;1685;53.104;8.228;2023-08-06T13:48:18;3.60;;;2.70;;
3343;SDS011;1685;53.104;8.228;2023-08-06T13:50:45;2.80;;;2.60;;
3343;SDS011;1685;53.104;8.228;2023-08-06T13:53:14;3.10;;;2.80;;
3343;SDS011;1685;53.104;8.228;2023-08-06T13:55:40;3.77;;;2.63;;
3343;SDS011;1685;53.104;8.228;2023-08-06T13:58:07;2.90;;;2.60;;
3343;SDS011;1685;53.104;8.228;2023-08-06T14:00:35;3.10;;;2.80;;
3343;SDS011;1685;53.104;8.228;2023-08-06T14:03:02;2.83;;;2.57;;
3343;SDS011;1685;53.104;8.228;2023-08-06T14:05:29;6.53;;;2.90;;
3343;SDS011;1685;53.104;8.228;2023-08-06T14:07:56;5.80;;;3.30;;
3343;SDS011;1685;53.104;8.228;2023-08-06T14:10:24;4.20;;;3.20;;
3343;SDS011;1685;53.104;8.228;2023-08-06T14:12:51;4.83;;;3.10;;
3343;SDS011;1685;53.104;8.228;2023-08-06T14:15:18;6.17;;;3.80;;
3343;SDS011;1685;53.104;8.228;2023-08-06T14:17:45;4.47;;;3.47;;
3343;SDS011;1685;53.104;8.228;2023-08-06T14:20:12;3.37;;;3.17;;
3343;SDS011;1685;53.104;8.228;2023-08-06T14:22:39;3.50;;;2.90;;
3343;SDS011;1685;53.104;8.228;2023-08-06T14:25:06;4.30;;;3.33;;
3343;SDS011;1685;53.104;8.228;2023-08-06T14:27:35;3.20;;;2.83;;
3343;SDS011;1685;53.104;8.228;2023-08-06T14:30:04;3.97;;;3.30;;
3343;SDS011;1685;53.104;8.228;2023-08-06T14:32:31;3.63;;;3.30;;
3343;SDS011;1685;53.104;8.228;2023-08-06T14:34:58;5.03;;;3.27;;
3343;SDS011;1685;53.104;8.228;2023-08-06T14:37:25;3.27;;;2.97;;
3343;SDS011;1685;53.104;8.228;2023-08-06T14:39:52;7.63;;;3.30;;
3343;SDS011;1685;53.104;8.228;2023-08-06T14:42:19;3.23;;;3.03;;
3343;SDS011;1685;53.104;8.228;2023-08-06T14:44:48;3.20;;;2.83;;
3343;SDS011;1685;53.104;8.228;2023-08-06T14:47:15;6.93;;;2.60;;
3343;SDS011;1685;53.104;8.228;2023-08-06T14:49:42;5.53;;;3.70;;
3343;SDS011;1685;53.104;8.228;2023-08-06T14:52:09;5.50;;;3.23;;
3343;SDS011;1685;53.104;8.228;2023-08-06T14:54:36;3.10;;;2.80;;
3343;SDS011;1685;53.104;8.228;2023-08-06T14:57:04;3.60;;;3.30;;
3343;SDS011;1685;53.104;8.228;2023-08-06T14:59:32;7.80;;;3.77;;
3343;SDS011;1685;53.104;8.228;2023-08-06T15:02:00;3.90;;;3.60;;
3343;SDS011;1685;53.104;8.228;2023-08-06T15:04:28;6.50;;;3.80;;
3343;SDS011;1685;53.104;8.228;2023-08-06T15:06:55;3.40;;;3.10;;
3343;SDS011;1685;53.104;8.228;2023-08-06T15:09:22;5.30;;;3.17;;
3343;SDS011;1685;53.104;8.228;2023-08-06T15:11:49;6.93;;;3.00;;
3343;SDS011;1685;53.104;8.228;2023-08-06T15:14:16;3.13;;;2.90;;
3343;SDS011;1685;53.104;8.228;2023-08-06T15:16:46;5.17;;;3.80;;